Time;durP1;ratioP1;P1;durP2;ratioP2;P2;SDS_P1;SDS_P2;PMS_P1;PMS_P2;Temp;Humidity;BMP_temperature;BMP_pressure;BME280_temperature;BME280_humidity;BME280_pressure;Samples;Min_cycle;Max_cycle;Signal;HPM_P1;HPM_P2
2023/08/25 00:00:38;;;;;;;8.53;3.63;;;20.20;69.50;;;;;;5053693;28;46693;-68
2023/08/25 00:03:05;;;;;;;6.07;3.27;;;20.20;69.30;;;;;;5048566;28;45842;-67
2023/08/25 00:05:38;;;;;;;13.97;3.50;;;20.10;69.30;;;;;;5034600;28;46439;-66
2023/08/25 00:08:04;;;;;;;8.90;3.33;;;20.10;68.30;;;;;;5050368;28;46408;-65
2023/08/25 00:10:30;;;;;;;9.17;3.73;;;20.10;69.20;;;;;;5047561;28;46463;-66
2023/08/25 00:12:56;;;;;;;7.53;3.50;;;20.10;69.20;;;;;;5042952;28;46558;-66
2023/08/25 00:15:21;;;;;;;8.97;3.13;;;20.20;69.10;;;;;;5044427;28;46341;-66
2023/08/25 00:17:50;;;;;;;7.87;3.00;;;20.10;68.20;;;;;;5038437;28;46363;-67
2023/08/25 00:20:16;;;;;;;9.10;3.70;;;20.10;69.40;;;;;;5042301;28;46510;-67
2023/08/25 00:22:42;;;;;;;7.37;3.70;;;20.10;69.20;;;;;;5045466;28;46686;-65
2023/08/25 00:25:08;;;;;;;5.50;3.20;;;20.10;69.00;;;;;;5034062;28;47357;-66
2023/08/25 00:27:33;;;;;;;6.87;3.27;;;20.20;68.20;;;;;;5054291;28;46742;-68
2023/08/25 00:29:59;;;;;;;7.57;2.77;;;20.20;69.10;;;;;;5040462;28;46502;-67
2023/08/25 00:32:25;;;;;;;7.50;3.13;;;20.20;68.70;;;;;;5042520;28;46428;-65
2023/08/25 00:34:51;;;;;;;8.57;2.70;;;20.30;68.80;;;;;;5051984;28;46427;-67
2023/08/25 00:37:16;;;;;;;12.93;3.87;;;20.30;67.50;;;;;;5042196;28;46590;-66
2023/08/25 00:39:42;;;;;;;8.13;3.07;;;20.30;68.60;;;;;;5032088;28;46406;-67
2023/08/25 00:42:07;;;;;;;8.53;3.10;;;20.30;68.50;;;;;;5037320;28;46624;-66
2023/08/25 00:44:33;;;;;;;5.83;3.03;;;20.30;68.30;;;;;;5040644;28;46801;-67
2023/08/25 00:46:59;;;;;;;19.40;3.63;;;20.40;67.40;;;;;;5042084;28;46438;-67
2023/08/25 00:49:25;;;;;;;9.10;3.00;;;20.40;68.30;;;;;;5051342;28;46680;-66
2023/08/25 00:51:51;;;;;;;8.07;3.37;;;20.40;68.70;;;;;;5045472;28;46367;-66
2023/08/25 00:54:20;;;;;;;9.63;2.80;;;20.40;68.60;;;;;;5043583;28;47064;-67
2023/08/25 00:56:47;;;;;;;16.00;2.83;;;20.40;67.60;;;;;;5032794;28;46374;-66
2023/08/25 00:59:13;;;;;;;9.83;3.23;;;20.40;68.50;;;;;;5037627;28;46365;-66
2023/08/25 01:01:40;;;;;;;6.10;2.73;;;20.40;68.00;;;;;;5048210;28;46374;-67
2023/08/25 01:04:06;;;;;;;7.10;3.00;;;20.40;67.80;;;;;;5043970;28;46408;-66
2023/08/25 01:06:31;;;;;;;8.20;2.93;;;20.50;65.90;;;;;;5040746;28;46467;-68
2023/08/25 01:08:58;;;;;;;8.10;2.57;;;20.50;66.90;;;;;;5048991;28;46334;-66
2023/08/25 01:11:41;;;;;;;6.80;3.00;;;20.60;66.50;;;;;;5050340;28;46435;-65
2023/08/25 01:14:26;;;;;;;11.53;3.23;;;20.60;66.00;;;;;;5042941;28;47277;-65
2023/08/25 01:17:02;;;;;;;6.80;2.73;;;20.70;64.60;;;;;;5045330;28;46423;-67
2023/08/25 01:19:37;;;;;;;7.50;3.53;;;20.70;65.30;;;;;;5060609;28;46480;-65
2023/08/25 01:22:12;;;;;;;5.10;2.83;;;20.90;64.70;;;;;;5049028;28;46472;-66
2023/08/25 01:24:41;;;;;;;7.20;3.00;;;20.90;64.60;;;;;;5037740;28;46404;-66
2023/08/25 01:27:08;;;;;;;4.30;2.47;;;20.90;62.90;;;;;;5040660;28;46435;-67
2023/08/25 01:29:35;;;;;;;7.10;2.40;;;20.90;64.00;;;;;;5028466;28;46377;-68
2023/08/25 01:32:00;;;;;;;8.63;3.30;;;21.00;63.90;;;;;;5028222;28;46868;-68
2023/08/25 01:34:26;;;;;;;17.83;3.00;;;21.00;63.80;;;;;;5028800;28;45958;-68
2023/08/25 01:37:11;;;;;;;6.13;2.70;;;20.90;62.40;;;;;;5030367;28;46603;-68
2023/08/25 01:39:40;;;;;;;8.27;2.80;;;20.90;63.40;;;;;;5031238;28;46696;-70
2023/08/25 01:42:07;;;;;;;6.07;2.40;;;20.90;64.60;;;;;;5029716;28;46491;-69
2023/08/25 01:44:34;;;;;;;9.00;2.60;;;20.90;63.30;;;;;;5037331;28;47976;-68
2023/08/25 01:47:06;;;;;;;4.50;2.80;;;20.80;61.90;;;;;;5034095;28;46430;-69
2023/08/25 01:49:32;;;;;;;5.60;2.70;;;20.80;62.90;;;;;;5030798;28;46698;-69
2023/08/25 01:51:59;;;;;;;5.47;2.70;;;20.80;62.90;;;;;;5027766;28;45882;-68
2023/08/25 01:54:25;;;;;;;6.77;2.70;;;20.80;62.90;;;;;;5029607;28;46470;-68
2023/08/25 01:56:50;;;;;;;5.73;3.13;;;20.70;61.60;;;;;;5028195;28;46442;-67
2023/08/25 01:59:16;;;;;;;11.60;2.33;;;20.70;62.60;;;;;;5029729;28;46558;-68
2023/08/25 02:01:42;;;;;;;8.87;2.70;;;20.70;62.60;;;;;;5031531;28;46357;-68
2023/08/25 02:04:07;;;;;;;10.33;2.63;;;20.70;62.40;;;;;;5027773;28;47256;-68
2023/08/25 02:06:33;;;;;;;9.43;2.87;;;20.70;61.10;;;;;;5030807;28;46486;-68
2023/08/25 02:08:59;;;;;;;5.50;2.77;;;20.70;62.20;;;;;;5030748;28;46542;-68
2023/08/25 02:11:24;;;;;;;6.23;2.27;;;20.70;62.20;;;;;;5028352;28;46666;-68
2023/08/25 02:13:50;;;;;;;7.67;2.67;;;20.70;62.30;;;;;;5029421;28;46486;-68
2023/08/25 02:16:16;;;;;;;5.73;2.60;;;20.70;61.40;;;;;;5030545;28;46587;-69
2023/08/25 02:18:41;;;;;;;8.93;2.40;;;20.70;62.40;;;;;;5022105;28;46646;-69
2023/08/25 02:21:07;;;;;;;7.83;2.80;;;20.70;62.30;;;;;;5028337;28;46474;-69
2023/08/25 02:23:32;;;;;;;8.83;2.73;;;20.70;62.10;;;;;;5027954;28;46444;-67
2023/08/25 02:25:58;;;;;;;7.40;2.20;;;20.60;62.00;;;;;;5025214;28;45842;-68
2023/08/25 02:28:24;;;;;;;3.83;2.40;;;20.60;60.80;;;;;;5025712;28;46443;-69
2023/08/25 02:30:49;;;;;;;10.63;2.57;;;20.50;62.00;;;;;;5028804;28;45903;-69
2023/08/25 02:33:15;;;;;;;5.33;3.03;;;20.50;61.80;;;;;;5027682;28;46321;-67
2023/08/25 02:35:41;;;;;;;5.40;2.87;;;20.40;61.80;;;;;;5027324;28;46412;-70
2023/08/25 02:38:09;;;;;;;7.13;2.90;;;20.40;60.50;;;;;;5026952;28;46372;-69
2023/08/25 02:40:35;;;;;;;4.10;2.60;;;20.40;61.70;;;;;;5012381;28;46579;-69
2023/08/25 02:43:03;;;;;;;6.37;2.57;;;20.40;61.10;;;;;;5026748;28;46779;-69
2023/08/25 02:45:29;;;;;;;8.00;2.73;;;20.50;61.30;;;;;;5024795;28;46534;-69
2023/08/25 02:47:55;;;;;;;4.80;2.17;;;20.50;60.20;;;;;;5026653;28;46512;-67
2023/08/25 02:50:21;;;;;;;4.60;1.90;;;20.60;61.40;;;;;;5027081;28;46884;-68
2023/08/25 02:52:48;;;;;;;10.23;1.97;;;20.60;61.40;;;;;;5026907;28;46563;-69
2023/08/25 02:55:19;;;;;;;2.83;1.90;;;20.70;61.40;;;;;;5026024;28;46472;-67
2023/08/25 02:57:45;;;;;;;5.13;2.40;;;20.80;59.90;;;;;;5026043;28;46395;-68
2023/08/25 03:00:16;;;;;;;4.87;2.27;;;20.80;60.80;;;;;;5025161;28;46496;-68
2023/08/25 03:02:42;;;;;;;4.37;2.10;;;20.90;60.10;;;;;;5029434;28;46992;-69
2023/08/25 03:05:09;;;;;;;4.90;1.83;;;20.90;60.10;;;;;;5026424;28;45824;-69
2023/08/25 03:07:35;;;;;;;4.40;2.10;;;20.90;58.60;;;;;;5026226;28;46500;-68
2023/08/25 03:10:00;;;;;;;5.03;2.20;;;20.90;59.60;;;;;;5028300;28;46668;-68
2023/08/25 03:12:29;;;;;;;5.43;2.20;;;20.90;59.40;;;;;;5024157;28;47043;-69
2023/08/25 03:14:55;;;;;;;6.83;2.47;;;20.90;59.20;;;;;;5025552;28;46890;-69
2023/08/25 03:17:21;;;;;;;7.70;2.20;;;20.80;57.90;;;;;;5026590;28;46547;-69
2023/08/25 03:19:47;;;;;;;5.93;2.47;;;20.90;59.00;;;;;;5024999;28;45911;-68
2023/08/25 03:22:13;;;;;;;6.57;2.57;;;20.80;58.70;;;;;;5028300;28;48357;-69
2023/08/25 03:24:38;;;;;;;10.43;2.77;;;20.80;58.60;;;;;;5023656;28;46495;-70
2023/08/25 03:27:04;;;;;;;6.67;1.80;;;20.90;57.00;;;;;;5026572;28;46754;-67
2023/08/25 03:29:31;;;;;;;6.93;2.10;;;20.80;58.20;;;;;;5025215;28;46555;-67
2023/08/25 03:31:57;;;;;;;6.03;2.50;;;20.90;58.00;;;;;;5025431;28;46456;-69
2023/08/25 03:34:23;;;;;;;4.27;2.10;;;20.80;57.60;;;;;;5027574;28;46376;-70
2023/08/25 03:36:49;;;;;;;5.10;2.10;;;20.90;56.20;;;;;;5022069;28;46835;-68
2023/08/25 03:39:14;;;;;;;4.23;1.97;;;20.90;57.20;;;;;;5028030;28;46487;-67
2023/08/25 03:41:40;;;;;;;7.27;3.00;;;20.90;56.70;;;;;;5023063;28;46409;-67
2023/08/25 03:44:06;;;;;;;15.50;2.53;;;21.00;56.50;;;;;;5024611;28;46480;-68
2023/08/25 03:46:34;;;;;;;6.93;2.40;;;21.00;55.00;;;;;;5025498;28;46443;-70
2023/08/25 03:49:00;;;;;;;5.40;2.40;;;21.00;56.10;;;;;;5025238;28;46398;-68
2023/08/25 03:51:26;;;;;;;4.07;2.53;;;21.00;55.90;;;;;;5025895;28;46838;-69
2023/08/25 03:53:51;;;;;;;5.00;2.10;;;21.10;56.00;;;;;;5027742;28;46410;-68
2023/08/25 03:56:17;;;;;;;5.63;1.93;;;21.10;54.60;;;;;;5023875;28;46475;-68
2023/08/25 03:58:43;;;;;;;4.10;1.97;;;21.10;55.40;;;;;;5024051;28;46027;-68
2023/08/25 04:01:09;;;;;;;6.80;2.73;;;21.20;54.90;;;;;;5027063;28;46606;-67
2023/08/25 04:03:34;;;;;;;5.87;2.27;;;21.30;54.60;;;;;;5024562;28;46714;-67
2023/08/25 04:06:00;;;;;;;5.00;2.50;;;21.30;54.00;;;;;;5023867;28;46449;-68
2023/08/25 04:08:25;;;;;;;4.07;2.07;;;21.40;53.80;;;;;;5024860;28;46502;-69
2023/08/25 04:10:52;;;;;;;5.77;2.13;;;21.40;53.60;;;;;;5028776;28;46612;-68
2023/08/25 04:13:18;;;;;;;6.27;2.30;;;21.40;53.20;;;;;;5025663;28;46730;-67
2023/08/25 04:15:44;;;;;;;5.30;2.60;;;21.50;53.00;;;;;;5024253;28;46425;-68
2023/08/25 04:18:09;;;;;;;4.70;2.17;;;21.40;52.70;;;;;;5022962;28;46467;-68
2023/08/25 04:20:35;;;;;;;4.30;2.37;;;21.50;52.70;;;;;;5023523;28;47054;-67
2023/08/25 04:23:04;;;;;;;7.70;2.27;;;21.40;52.40;;;;;;5024258;28;46424;-68
2023/08/25 04:25:30;;;;;;;5.50;2.23;;;21.50;52.30;;;;;;5024576;28;46740;-68
2023/08/25 04:27:56;;;;;;;4.00;2.30;;;21.40;52.20;;;;;;5037287;28;46668;-67
2023/08/25 04:30:25;;;;;;;4.60;2.33;;;21.40;52.20;;;;;;5028365;28;46437;-66
2023/08/25 04:32:51;;;;;;;7.70;2.40;;;21.40;52.20;;;;;;5028810;28;46393;-68
2023/08/25 04:35:17;;;;;;;10.10;3.00;;;21.40;52.20;;;;;;5034058;28;46671;-68
2023/08/25 04:37:47;;;;;;;3.70;2.00;;;21.40;53.40;;;;;;5034006;28;46407;-67
2023/08/25 04:40:15;;;;;;;5.50;2.60;;;21.30;51.90;;;;;;5027575;28;47194;-68
2023/08/25 04:42:41;;;;;;;4.37;2.37;;;21.40;51.80;;;;;;5035055;28;46421;-66
2023/08/25 04:45:09;;;;;;;9.13;2.40;;;21.40;51.60;;;;;;5029982;28;46303;-66
2023/08/25 04:47:35;;;;;;;6.10;2.73;;;21.50;51.50;;;;;;5031603;28;46596;-66
2023/08/25 04:50:03;;;;;;;5.50;2.30;;;21.50;51.10;;;;;;5031852;28;46609;-66
2023/08/25 04:52:33;;;;;;;7.77;2.70;;;21.60;51.00;;;;;;5025163;28;46528;-66
2023/08/25 04:54:58;;;;;;;4.97;2.63;;;21.60;50.60;;;;;;5031965;28;46700;-68
2023/08/25 04:57:24;;;;;;;5.20;3.10;;;21.60;50.40;;;;;;5032861;28;45926;-67
2023/08/25 04:59:49;;;;;;;4.60;2.60;;;21.60;50.30;;;;;;5036935;28;46489;-67
2023/08/25 05:02:17;;;;;;;7.97;2.63;;;21.60;51.20;;;;;;5035792;28;46501;-67
2023/08/25 05:04:42;;;;;;;5.77;2.67;;;21.60;50.00;;;;;;5033640;28;46813;-67
2023/08/25 05:07:08;;;;;;;5.43;2.20;;;21.60;50.00;;;;;;5035992;28;46341;-67
2023/08/25 05:09:34;;;;;;;4.40;2.57;;;21.60;50.20;;;;;;5037059;28;46431;-66
2023/08/25 05:11:59;;;;;;;7.17;2.60;;;21.50;50.00;;;;;;5032894;28;46438;-67
2023/08/25 05:14:25;;;;;;;6.67;2.60;;;21.50;50.20;;;;;;5032976;28;46523;-66
2023/08/25 05:16:51;;;;;;;6.00;2.53;;;21.50;50.20;;;;;;5032107;28;46528;-68
2023/08/25 05:19:16;;;;;;;8.53;2.60;;;21.50;50.10;;;;;;5034076;28;46930;-67
2023/08/25 05:21:42;;;;;;;4.33;2.50;;;21.60;50.00;;;;;;5032526;28;46422;-66
2023/08/25 05:24:22;;;;;;;4.73;2.60;;;21.60;49.80;;;;;;5033764;28;46383;-66
2023/08/25 05:26:52;;;;;;;3.70;2.20;;;21.70;49.20;;;;;;5034537;28;46641;-67
2023/08/25 05:29:28;;;;;;;3.80;2.10;;;21.70;49.30;;;;;;5028862;28;46468;-66
2023/08/25 05:31:54;;;;;;;3.73;1.97;;;21.80;49.40;;;;;;5032445;28;46494;-67
2023/08/25 05:34:20;;;;;;;4.43;2.40;;;21.80;49.30;;;;;;5034407;28;46401;-66
2023/08/25 05:36:46;;;;;;;5.90;2.70;;;21.90;50.60;;;;;;5041430;28;46575;-66
2023/08/25 05:39:12;;;;;;;4.80;2.70;;;21.90;49.40;;;;;;5036608;28;46483;-66
2023/08/25 05:41:37;;;;;;;4.07;2.50;;;22.00;48.90;;;;;;5024036;27;47391;-67
2023/08/25 05:44:03;;;;;;;6.57;2.83;;;22.00;48.60;;;;;;5071812;27;46425;-67
2023/08/25 05:46:30;;;;;;;4.90;2.47;;;22.00;48.70;;;;;;5070551;28;46476;-67
2023/08/25 05:48:56;;;;;;;5.93;2.27;;;22.00;48.30;;;;;;5073037;27;46487;-67
2023/08/25 05:51:22;;;;;;;6.37;2.97;;;22.10;48.10;;;;;;5072282;28;46271;-67
2023/08/25 05:53:47;;;;;;;5.80;2.03;;;22.10;47.90;;;;;;5076984;27;46514;-67
2023/08/25 05:56:13;;;;;;;4.93;2.77;;;22.20;46.40;;;;;;5072698;28;46581;-66
2023/08/25 05:58:41;;;;;;;7.53;2.50;;;22.30;47.40;;;;;;5074610;28;46390;-66
2023/08/25 06:01:07;;;;;;;4.47;2.17;;;22.30;47.20;;;;;;5062180;27;46741;-67
2023/08/25 06:03:33;;;;;;;3.73;2.30;;;22.30;47.20;;;;;;5067551;27;46414;-69
2023/08/25 06:05:59;;;;;;;4.30;2.20;;;22.20;47.00;;;;;;5071457;28;46568;-67
2023/08/25 06:08:24;;;;;;;4.10;2.20;;;22.30;45.70;;;;;;5068090;28;48052;-68
2023/08/25 06:10:52;;;;;;;7.20;2.60;;;22.40;46.80;;;;;;5067033;27;46444;-68
2023/08/25 06:13:18;;;;;;;6.00;2.27;;;22.40;46.60;;;;;;5069969;28;46856;-69
2023/08/25 06:15:44;;;;;;;9.50;2.07;;;22.40;45.30;;;;;;5088172;22;46836;-65
2023/08/25 06:18:09;;;;;;;5.00;2.60;;;22.40;45.10;;;;;;5084310;27;48127;-65
2023/08/25 06:20:35;;;;;;;3.30;1.93;;;22.40;46.20;;;;;;5088050;27;46527;-64
2023/08/25 06:23:01;;;;;;;11.03;2.37;;;22.40;46.10;;;;;;5087205;27;47305;-67
2023/08/25 06:25:26;;;;;;;4.47;2.20;;;22.40;46.10;;;;;;5085312;27;46570;-67
2023/08/25 06:27:53;;;;;;;4.67;2.20;;;22.40;45.90;;;;;;5086519;27;48166;-64
2023/08/25 06:30:20;;;;;;;4.43;1.83;;;22.70;45.60;;;;;;5091761;27;46473;-66
2023/08/25 06:32:46;;;;;;;9.83;2.63;;;23.10;44.90;;;;;;5085095;27;46457;-63
2023/08/25 06:35:12;;;;;;;5.10;1.90;;;23.50;44.20;;;;;;5085392;27;46200;-66
2023/08/25 06:37:38;;;;;;;5.80;2.00;;;24.10;43.80;;;;;;5084889;27;48206;-65
2023/08/25 06:40:05;;;;;;;4.00;2.27;;;25.10;41.10;;;;;;5084873;27;46165;-66
2023/08/25 06:42:31;;;;;;;5.47;1.80;;;26.60;35.50;;;;;;5082271;27;46573;-65
2023/08/25 06:44:57;;;;;;;3.13;1.60;;;27.50;32.30;;;;;;5086190;27;46552;-64
2023/08/25 06:47:27;;;;;;;5.33;1.93;;;27.30;32.80;;;;;;5097388;27;47918;-68
2023/08/25 06:49:54;;;;;;;5.43;2.20;;;27.00;33.80;;;;;;5082620;27;46423;-65
2023/08/25 06:52:20;;;;;;;3.73;2.10;;;26.90;34.60;;;;;;5085104;27;46544;-66
2023/08/25 06:54:46;;;;;;;4.37;1.80;;;26.90;34.40;;;;;;5084035;27;46652;-67
2023/08/25 06:57:12;;;;;;;3.50;1.83;;;27.30;32.60;;;;;;5086099;27;47316;-64
2023/08/25 06:59:37;;;;;;;6.00;2.30;;;27.40;33.40;;;;;;5083297;27;46834;-65
2023/08/25 07:02:03;;;;;;;7.03;1.93;;;27.60;32.80;;;;;;5078669;27;46575;-64
2023/08/25 07:04:29;;;;;;;4.03;2.10;;;27.80;32.50;;;;;;5074947;27;46833;-64
2023/08/25 07:06:55;;;;;;;3.37;2.00;;;27.60;24.70;;;;;;5080809;27;47792;-66
2023/08/25 07:09:21;;;;;;;2.80;1.70;;;27.60;25.40;;;;;;5079638;27;46177;-63
2023/08/25 07:11:46;;;;;;;5.20;2.43;;;27.40;25.50;;;;;;5066239;27;46408;-65
2023/08/25 07:14:12;;;;;;;4.93;2.00;;;27.20;25.80;;;;;;5083572;27;46486;-65
2023/08/25 07:16:38;;;;;;;4.63;2.20;;;27.10;26.10;;;;;;5088867;27;48921;-65
2023/08/25 07:19:03;;;;;;;9.33;2.40;;;26.90;25.40;;;;;;5084080;27;46478;-65
2023/08/25 07:21:29;;;;;;;4.53;2.10;;;26.80;26.90;;;;;;5094466;27;46483;-66
2023/08/25 07:23:55;;;;;;;4.47;2.20;;;26.70;26.90;;;;;;5086137;27;46474;-64
2023/08/25 07:26:25;;;;;;;4.10;2.10;;;26.60;26.80;;;;;;5085136;27;47941;-64
2023/08/25 07:28:51;;;;;;;5.43;2.30;;;26.40;25.90;;;;;;5088168;27;46494;-66
2023/08/25 07:31:17;;;;;;;4.60;2.40;;;26.40;26.70;;;;;;5087582;27;46631;-64
2023/08/25 07:33:43;;;;;;;4.87;2.40;;;26.30;26.70;;;;;;5091613;27;46727;-65
2023/08/25 07:36:09;;;;;;;3.83;2.27;;;26.30;26.70;;;;;;5084900;27;47038;-65
2023/08/25 07:38:35;;;;;;;5.07;2.40;;;26.20;26.60;;;;;;5083367;27;48078;-65
2023/08/25 07:41:01;;;;;;;4.10;2.17;;;26.20;26.60;;;;;;5083693;27;46250;-66
2023/08/25 07:43:27;;;;;;;5.27;2.50;;;26.10;26.50;;;;;;5082584;27;46557;-66
2023/08/25 07:45:56;;;;;;;5.83;2.60;;;26.00;26.70;;;;;;5080987;27;48778;-68
2023/08/25 07:48:23;;;;;;;6.00;2.27;;;25.90;26.40;;;;;;5081496;27;46442;-65
2023/08/25 07:50:49;;;;;;;6.20;2.50;;;26.10;26.50;;;;;;5079630;27;46271;-67
2023/08/25 07:53:15;;;;;;;4.77;2.30;;;26.30;26.50;;;;;;5080440;27;46518;-68
2023/08/25 07:55:41;;;;;;;4.43;2.37;;;26.40;25.90;;;;;;5085558;27;47854;-66
2023/08/25 07:58:08;;;;;;;5.23;2.20;;;26.40;25.60;;;;;;5083501;27;46513;-64
2023/08/25 08:00:34;;;;;;;5.90;2.47;;;26.40;25.40;;;;;;5081287;27;46416;-69
2023/08/25 08:03:00;;;;;;;6.33;2.10;;;26.30;25.60;;;;;;5084568;27;47007;-64
2023/08/25 08:05:26;;;;;;;6.50;2.70;;;26.30;25.70;;;;;;5079098;27;47162;-69
2023/08/25 08:07:52;;;;;;;4.63;2.37;;;26.30;25.60;;;;;;5080422;27;46673;-70
2023/08/25 08:10:18;;;;;;;5.40;2.40;;;26.30;25.40;;;;;;5081901;27;46368;-67
2023/08/25 08:12:44;;;;;;;6.53;2.50;;;26.10;25.60;;;;;;5082565;27;46737;-68
2023/08/25 08:15:12;;;;;;;5.47;2.40;;;26.00;26.50;;;;;;5081177;27;47792;-68
2023/08/25 08:17:38;;;;;;;4.90;2.67;;;25.10;26.40;;;;;;5079802;27;46509;-65
2023/08/25 08:20:05;;;;;;;4.23;2.60;;;24.80;27.50;;;;;;5082423;27;46492;-67
2023/08/25 08:22:31;;;;;;;5.50;2.43;;;24.80;28.20;;;;;;5081410;27;46516;-67
2023/08/25 08:24:57;;;;;;;4.90;2.60;;;24.50;28.90;;;;;;5079745;27;47419;-64
2023/08/25 08:27:22;;;;;;;6.03;2.40;;;24.10;29.00;;;;;;5081098;27;46564;-68
2023/08/25 08:29:48;;;;;;;9.23;2.80;;;24.10;29.90;;;;;;5079788;27;46386;-64
2023/08/25 08:32:14;;;;;;;6.33;2.87;;;24.30;29.10;;;;;;5080250;27;45909;-67
2023/08/25 08:34:40;;;;;;;4.20;2.50;;;24.30;29.70;;;;;;5083660;27;48069;-66
2023/08/25 08:37:07;;;;;;;8.63;2.37;;;24.30;29.30;;;;;;5081493;27;46987;-65
2023/08/25 08:39:33;;;;;;;5.63;2.47;;;24.30;29.20;;;;;;5082209;27;46457;-64
2023/08/25 08:42:03;;;;;;;5.93;2.70;;;24.30;30.10;;;;;;5085380;27;47440;-68
2023/08/25 08:44:32;;;;;;;6.07;3.03;;;24.40;30.30;;;;;;5087506;27;48340;-67
2023/08/25 08:46:59;;;;;;;12.13;3.50;;;24.20;31.10;;;;;;5081898;27;46442;-64
2023/08/25 08:49:26;;;;;;;8.13;4.00;;;24.20;32.20;;;;;;5082336;27;46719;-66
2023/08/25 08:51:55;;;;;;;8.23;4.07;;;24.40;30.90;;;;;;5072030;22;46450;-68
2023/08/25 08:54:23;;;;;;;9.13;3.30;;;24.60;31.60;;;;;;5060183;28;46356;-67
2023/08/25 08:56:50;;;;;;;5.97;2.73;;;24.70;31.60;;;;;;5061708;28;46520;-69
2023/08/25 08:59:16;;;;;;;8.47;3.50;;;24.80;31.60;;;;;;5059588;28;45869;-66
2023/08/25 09:01:42;;;;;;;5.47;3.10;;;25.00;31.10;;;;;;5060961;28;46402;-66
2023/08/25 09:04:08;;;;;;;6.10;3.07;;;24.90;31.10;;;;;;5060806;28;46494;-67
2023/08/25 09:06:37;;;;;;;9.53;3.20;;;25.00;31.10;;;;;;5059967;28;46987;-67
2023/08/25 09:09:05;;;;;;;5.20;2.97;;;24.90;30.90;;;;;;5061403;28;46563;-69
2023/08/25 09:11:32;;;;;;;7.03;3.20;;;24.80;31.00;;;;;;5062714;27;46429;-68
2023/08/25 09:14:03;;;;;;;10.67;2.90;;;24.80;30.90;;;;;;5058828;28;49460;-69
2023/08/25 09:16:35;;;;;;;5.33;2.87;;;25.00;30.90;;;;;;5059379;28;46536;-68
2023/08/25 09:19:04;;;;;;;8.17;3.33;;;25.60;29.70;;;;;;5059456;28;46417;-66
2023/08/25 09:21:30;;;;;;;7.70;3.87;;;26.20;28.90;;;;;;5060651;28;46482;-70
2023/08/25 09:24:02;;;;;;;12.17;3.80;;;26.30;28.30;;;;;;5061306;28;47398;-67
2023/08/25 09:26:34;;;;;;;5.83;3.03;;;25.90;28.00;;;;;;5058489;28;47101;-68
2023/08/25 09:28:59;;;;;;;9.70;3.03;;;25.50;28.70;;;;;;5061825;28;46445;-67
2023/08/25 09:31:29;;;;;;;9.37;3.40;;;25.40;29.10;;;;;;5060989;28;46507;-67
2023/08/25 09:34:07;;;;;;;12.77;3.40;;;25.40;29.10;;;;;;5062519;28;46427;-68
2023/08/25 09:36:33;;;;;;;7.23;3.17;;;25.50;29.20;;;;;;5058581;28;46449;-68
2023/08/25 09:39:00;;;;;;;5.27;3.50;;;25.70;29.00;;;;;;5060534;27;46107;-66
2023/08/25 09:41:30;;;;;;;25.73;4.43;;;25.90;28.80;;;;;;5062896;28;46625;-65
2023/08/25 09:44:00;;;;;;;8.50;3.70;;;26.20;28.30;;;;;;5060904;28;46911;-67
2023/08/25 09:46:30;;;;;;;7.23;3.40;;;27.00;26.20;;;;;;5060372;28;46587;-65
2023/08/25 09:49:03;;;;;;;9.00;3.80;;;27.10;27.20;;;;;;5063949;28;46706;-66
2023/08/25 09:51:39;;;;;;;5.83;3.03;;;27.50;25.90;;;;;;5062473;28;46584;-65
2023/08/25 09:54:10;;;;;;;7.50;3.40;;;27.60;25.30;;;;;;5064500;28;46425;-64
2023/08/25 09:56:37;;;;;;;4.77;3.10;;;27.50;25.60;;;;;;5063360;28;46468;-66
2023/08/25 09:59:03;;;;;;;7.73;3.03;;;27.60;25.50;;;;;;5060843;28;46861;-65
2023/08/25 10:01:40;;;;;;;6.50;3.00;;;27.60;25.30;;;;;;5064623;28;46892;-70
2023/08/25 10:04:06;;;;;;;5.90;2.93;;;27.60;25.70;;;;;;5062332;28;46608;-66
2023/08/25 10:06:35;;;;;;;7.60;3.30;;;27.80;25.30;;;;;;5060651;28;46438;-68
2023/08/25 10:09:01;;;;;;;5.50;3.00;;;27.70;25.00;;;;;;5065797;28;46359;-68
2023/08/25 10:11:31;;;;;;;5.97;2.87;;;27.70;24.70;;;;;;5063673;28;46636;-69
2023/08/25 10:14:02;;;;;;;6.70;2.70;;;27.80;24.50;;;;;;5065282;28;46946;-67
2023/08/25 10:16:28;;;;;;;8.43;2.67;;;28.00;24.30;;;;;;5063058;28;46427;-68
2023/08/25 10:19:01;;;;;;;6.90;2.10;;;28.00;24.10;;;;;;5065141;28;46408;-68
2023/08/25 10:21:30;;;;;;;4.87;2.73;;;28.10;24.00;;;;;;5065490;28;46890;-69
2023/08/25 10:23:58;;;;;;;11.40;2.77;;;28.00;23.90;;;;;;5066115;28;46668;-67
2023/08/25 10:26:24;;;;;;;5.30;3.37;;;28.00;21.60;;;;;;5062861;28;46431;-68
2023/08/25 10:28:50;;;;;;;7.30;3.03;;;28.00;22.20;;;;;;5064659;28;46550;-68
2023/08/25 10:31:16;;;;;;;4.23;2.70;;;28.10;21.60;;;;;;5067362;28;45969;-68
2023/08/25 10:33:50;;;;;;;4.87;3.10;;;28.20;21.50;;;;;;5064292;28;46562;-69
2023/08/25 10:36:17;;;;;;;11.73;3.20;;;28.60;19.80;;;;;;5062775;28;46430;-68
2023/08/25 10:38:54;;;;;;;9.23;3.17;;;28.60;20.60;;;;;;5063024;28;46594;-68
2023/08/25 10:41:23;;;;;;;7.57;3.53;;;28.50;20.30;;;;;;5065194;28;45890;-68
2023/08/25 10:43:53;;;;;;;7.83;3.13;;;28.80;20.20;;;;;;5065031;28;46637;-67
2023/08/25 10:46:20;;;;;;;6.63;2.97;;;29.20;18.60;;;;;;5064305;28;46456;-68
2023/08/25 10:49:02;;;;;;;5.83;3.47;;;29.20;19.30;;;;;;5062320;28;46677;-67
2023/08/25 10:51:28;;;;;;;5.83;2.67;;;29.20;18.90;;;;;;5065169;28;46486;-68
2023/08/25 10:53:54;;;;;;;6.20;2.80;;;29.20;19.00;;;;;;5061507;28;46481;-68
2023/08/25 10:56:21;;;;;;;9.20;3.57;;;29.40;17.80;;;;;;5062942;28;46552;-67
2023/08/25 10:59:10;;;;;;;5.77;3.07;;;29.40;18.40;;;;;;5063850;28;46676;-66
2023/08/25 11:01:36;;;;;;;13.07;3.20;;;29.40;18.20;;;;;;5066184;28;46395;-66
2023/08/25 11:04:13;;;;;;;6.00;3.37;;;29.30;18.30;;;;;;5063593;28;47338;-66
2023/08/25 11:06:42;;;;;;;8.10;2.80;;;29.20;18.40;;;;;;5063445;28;46456;-67
2023/08/25 11:09:30;;;;;;;6.40;2.83;;;29.30;18.20;;;;;;5062934;28;46904;-68
2023/08/25 11:12:04;;;;;;;7.07;3.10;;;29.30;17.00;;;;;;5064742;28;46488;-66
2023/08/25 11:14:33;;;;;;;5.73;2.70;;;29.30;17.40;;;;;;5046588;28;47244;-66
2023/08/25 11:17:02;;;;;;;4.47;2.73;;;29.40;17.30;;;;;;5063791;28;46442;-66
2023/08/25 11:19:30;;;;;;;7.10;3.43;;;29.20;17.10;;;;;;5060360;28;46948;-65
2023/08/25 11:22:05;;;;;;;5.00;2.50;;;29.20;17.10;;;;;;5059356;28;46412;-65
2023/08/25 11:24:32;;;;;;;6.17;2.80;;;29.00;17.00;;;;;;5062754;28;46850;-66
2023/08/25 11:27:23;;;;;;;7.43;3.47;;;28.90;17.00;;;;;;5062372;28;46376;-65
2023/08/25 11:29:49;;;;;;;6.03;2.40;;;29.10;17.10;;;;;;5059666;28;46524;-66
2023/08/25 11:32:15;;;;;;;4.40;2.43;;;29.10;17.10;;;;;;5063308;28;46766;-65
2023/08/25 11:34:48;;;;;;;6.00;2.90;;;29.20;17.10;;;;;;5064451;28;46474;-65
2023/08/25 11:37:14;;;;;;;8.70;2.87;;;29.40;15.50;;;;;;5062049;28;46414;-66
2023/08/25 11:39:44;;;;;;;5.23;2.70;;;29.50;16.30;;;;;;5063664;28;46541;-65
2023/08/25 11:42:09;;;;;;;5.70;2.70;;;29.90;15.50;;;;;;5063879;28;46964;-65
2023/08/25 11:44:40;;;;;;;8.83;2.77;;;30.20;14.80;;;;;;5063252;28;46535;-66
2023/08/25 11:47:06;;;;;;;4.83;2.70;;;30.50;13.30;;;;;;5063722;28;46554;-65
2023/08/25 11:49:32;;;;;;;3.70;2.50;;;30.40;13.90;;;;;;5064145;28;46478;-66
2023/08/25 11:52:00;;;;;;;5.60;2.93;;;30.20;14.00;;;;;;5063153;28;46497;-64
2023/08/25 11:54:26;;;;;;;10.70;3.00;;;29.90;14.20;;;;;;5061890;28;47125;-65
2023/08/25 11:56:52;;;;;;;5.57;2.73;;;29.60;13.90;;;;;;5064115;28;46841;-64
2023/08/25 11:59:19;;;;;;;7.43;2.93;;;29.60;14.80;;;;;;5066487;28;46756;-67
2023/08/25 12:01:49;;;;;;;6.77;2.63;;;29.40;15.00;;;;;;5061106;27;45986;-64
2023/08/25 12:04:26;;;;;;;7.10;2.40;;;29.30;15.00;;;;;;5065813;28;47162;-67
2023/08/25 12:06:56;;;;;;;6.40;3.00;;;29.60;13.60;;;;;;5063321;28;46434;-65
2023/08/25 12:09:23;;;;;;;7.97;3.37;;;29.60;14.30;;;;;;5064928;28;46594;-66
2023/08/25 12:11:56;;;;;;;7.63;3.33;;;29.80;14.10;;;;;;5062835;28;46731;-66
2023/08/25 12:14:29;;;;;;;7.20;3.30;;;30.00;13.80;;;;;;5063281;28;47320;-66
2023/08/25 12:16:56;;;;;;;5.40;3.00;;;30.30;12.50;;;;;;5061946;28;46538;-65
2023/08/25 12:19:26;;;;;;;6.50;3.57;;;30.20;13.40;;;;;;5065427;28;46803;-66
2023/08/25 12:21:57;;;;;;;8.43;3.43;;;30.40;13.30;;;;;;5062658;28;46427;-64
2023/08/25 12:24:23;;;;;;;6.63;3.10;;;30.60;12.80;;;;;;5065132;28;46962;-66
2023/08/25 12:26:50;;;;;;;4.20;2.40;;;30.60;12.00;;;;;;5061155;28;46519;-66
2023/08/25 12:29:16;;;;;;;6.13;2.80;;;30.60;12.70;;;;;;5063988;28;46204;-67
2023/08/25 12:31:42;;;;;;;4.50;2.77;;;;;;;;;;5063272;28;46454;-66
2023/08/25 12:34:08;;;;;;;5.00;2.90;;;30.80;11.30;;;;;;5063049;28;47847;-67
2023/08/25 12:36:35;;;;;;;6.60;2.90;;;30.80;11.00;;;;;;5062222;28;46360;-66
2023/08/25 12:39:03;;;;;;;8.10;3.63;;;30.70;11.90;;;;;;5062925;28;46429;-66
2023/08/25 12:41:29;;;;;;;5.00;2.70;;;30.70;11.70;;;;;;5066043;28;46586;-64
2023/08/25 12:43:54;;;;;;;5.67;2.80;;;30.60;11.70;;;;;;5060830;28;47980;-66
2023/08/25 12:46:22;;;;;;;6.07;2.30;;;30.50;10.40;;;;;;5062676;28;46164;-66